ROMMA est une association bénévole à but non lucratif. Votre soutien est indispensable : ADHERER à ROMMA ou FAIRE un DON

Taninges - (74, Haute-Savoie)

Vallée du Giffre (635 m)   Longitude: 06° 35' 38" E   Latitude: 46° 06' 21" N Station romma n°98
 

Détail journalier du     <<     >>

Température Precipitation Humidité Pression Vent Dir Rafale Dir. rafale Ensol.
Heure (°C) (mm) (%) (hPa) (km/h) (km/h) (min)
01:00 15.608910121SSE5SSE0
02:00 14.809010121SSE3SSE0
03:00 13.809110111SSO5S0
04:00 13.009310111SSO5SSO0
05:00 12.4094101108S0
06:00 11.809410111SO6SO0
07:00 11.209510111SSO6S0
08:00 13.809610101S5SE25
09:00 18.707810092SSE8SSO60
10:00 22.406510092SSE6SSO60
11:00 25.805610093O8O60
12:00 27.205410088OSO19OSO60
13:00 28.2053100810OSO24OSO60
14:00 29.904410088SO24OSO60
15:00 30.7041100810O29O40
16:00 29.8044100815O35O55
17:00 29.8045100810O24ONO60
18:00 29.3046100911O26O60
19:00 27.8049100914ONO31O25
20:00 25.505910094SE15OSO0
21:00 22.107510091SE6ONO0
22:00 20.708110101SE6ESE0
23:00 21.10.67710119ONO48NO0
minuit 18.51289101210O35ONO0

Graphique du 18-08-2019

 

Serveur OMMA